Time;durP1;ratioP1;P1;durP2;ratioP2;P2;SDS_P1;SDS_P2;PMS_P1;PMS_P2;Temp;Humidity;BMP_temperature;BMP_pressure;BME280_temperature;BME280_humidity;BME280_pressure;Samples;Min_cycle;Max_cycle;Signal;HPM_P1;HPM_P2
2023/04/20 00:01:41;;;;;;;11.63;7.33;;;8.70;99.90;;;7.20;88.84;100025.94;10379303;28;96850;-80
2023/04/20 00:06:44;;;;;;;12.13;7.43;;;8.80;99.90;;;7.26;89.18;100021.88;10374905;28;98414;-80
2023/04/20 00:11:47;;;;;;;9.83;7.10;;;8.80;99.90;;;7.27;89.68;100015.59;10391618;27;96941;-80
2023/04/20 00:16:50;;;;;;;9.67;6.93;;;8.80;99.90;;;7.29;89.32;100018.09;10393607;27;97931;-80
2023/04/20 00:21:53;;;;;;;7.90;5.10;;;8.80;99.90;;;7.27;89.25;100012.97;10411652;28;96635;-80
2023/04/20 00:26:56;;;;;;;10.17;5.80;;;8.80;99.90;;;7.25;89.22;100012.25;10394263;28;96515;-80
2023/04/20 00:32:00;;;;;;;12.43;6.70;;;8.70;99.90;;;7.13;89.28;100006.34;10409698;28;96661;-80
2023/04/20 00:37:02;;;;;;;8.77;6.17;;;8.60;99.90;;;7.04;89.48;100014.38;10412314;28;97036;-80
2023/04/20 00:42:07;;;;;;;10.93;7.27;;;8.50;99.90;;;6.93;90.48;100018.06;10393530;28;96595;-79
2023/04/20 00:47:10;;;;;;;9.93;6.73;;;8.50;99.90;;;6.91;90.91;100004.19;10377473;27;96880;-80
2023/04/20 00:52:13;;;;;;;11.17;7.53;;;8.50;99.90;;;6.90;91.08;100007.81;10352697;28;96512;-80
2023/04/20 00:57:22;;;;;;;8.93;6.60;;;8.40;99.90;;;6.85;90.91;100010.06;10366820;28;96525;-80
2023/04/20 01:02:26;;;;;;;11.57;7.03;;;8.40;99.90;;;6.80;90.84;100014.94;10368415;27;96944;-80
2023/04/20 01:07:29;;;;;;;9.97;7.07;;;8.40;99.90;;;6.76;90.94;100013.56;10393123;28;96610;-80
2023/04/20 01:12:33;;;;;;;9.30;6.67;;;8.30;99.90;;;6.65;90.58;100010.13;10377811;28;96682;-80
2023/04/20 01:17:39;;;;;;;12.30;7.37;;;8.30;99.90;;;6.57;90.89;100015.34;10391429;27;96551;-80
2023/04/20 01:22:44;;;;;;;12.37;8.53;;;8.10;99.90;;;6.53;90.92;100000.75;10360598;28;96437;-80
2023/04/20 01:27:47;;;;;;;11.00;6.63;;;8.10;99.90;;;6.53;91.15;100013.13;10398767;28;96644;-80
2023/04/20 01:32:50;;;;;;;11.20;8.27;;;8.10;99.90;;;6.49;91.50;100004.69;10397721;27;96916;-80
2023/04/20 01:37:53;;;;;;;10.00;7.00;;;8.10;99.90;;;6.46;91.41;99999.69;10380512;28;96560;-79
2023/04/20 01:42:56;;;;;;;11.03;7.63;;;8.10;99.90;;;6.41;91.38;99999.28;10399575;28;98769;-79
2023/04/20 01:48:00;;;;;;;9.13;6.27;;;8.00;99.90;;;6.35;91.24;100003.34;10415718;28;96912;-78
2023/04/20 01:53:03;;;;;;;9.10;5.30;;;7.90;99.90;;;6.30;91.29;100004.78;10381655;28;97458;-78
2023/04/20 01:58:06;;;;;;;9.20;6.07;;;7.90;99.90;;;6.28;91.34;100001.44;10400164;27;96539;-78
2023/04/20 02:03:09;;;;;;;9.83;6.43;;;7.80;99.90;;;6.24;91.42;100000.03;10397857;28;96533;-78
2023/04/20 02:08:13;;;;;;;9.50;7.03;;;7.80;99.90;;;6.17;91.38;100003.25;10400266;28;96487;-78
2023/04/20 02:13:16;;;;;;;12.30;7.40;;;7.80;99.90;;;6.14;91.50;100002.75;10383561;28;96511;-78
2023/04/20 02:18:19;;;;;;;11.20;5.30;;;7.70;99.90;;;6.11;91.44;100005.66;10380175;28;97001;-78
2023/04/20 02:23:21;;;;;;;9.47;5.43;;;7.70;99.90;;;6.07;91.58;100002.50;10382017;28;96664;-79
2023/04/20 02:28:25;;;;;;;9.07;6.03;;;7.60;99.90;;;6.04;91.44;100000.13;10409348;27;98184;-80
2023/04/20 02:33:30;;;;;;;9.97;6.47;;;7.60;99.90;;;5.99;91.62;99996.25;10412539;27;96588;-79
2023/04/20 02:38:33;;;;;;;7.93;5.37;;;7.60;99.90;;;5.95;91.46;100001.00;10376754;28;97214;-78
2023/04/20 02:43:36;;;;;;;7.83;5.13;;;7.60;99.90;;;5.89;91.63;99998.91;10393792;28;96581;-79
2023/04/20 02:48:39;;;;;;;9.70;6.40;;;7.50;99.90;;;5.84;91.63;100004.59;10385709;28;97458;-79
2023/04/20 02:53:42;;;;;;;11.07;7.83;;;7.50;99.90;;;5.80;91.58;100007.66;10383528;28;97199;-79
2023/04/20 02:58:47;;;;;;;10.77;6.27;;;7.40;99.90;;;5.76;91.58;100019.47;10383436;28;98822;-79
2023/04/20 03:03:50;;;;;;;11.00;7.47;;;7.40;99.90;;;5.75;91.90;100017.78;10394119;28;97750;-79
2023/04/20 03:08:53;;;;;;;9.53;6.27;;;7.40;99.90;;;5.72;92.11;100023.34;10397972;28;96496;-79
2023/04/20 03:13:56;;;;;;;9.27;6.73;;;7.30;99.90;;;5.70;92.25;100026.13;10394667;28;98366;-80
2023/04/20 03:18:59;;;;;;;13.93;9.73;;;7.30;99.90;;;5.67;92.51;100026.41;10395712;28;96651;-80
2023/04/20 03:24:03;;;;;;;16.63;12.07;;;7.30;99.90;;;5.64;92.41;100016.97;10381801;28;96510;-80
2023/04/20 03:29:06;;;;;;;14.00;9.57;;;7.30;99.90;;;5.62;92.42;100024.19;10394535;28;96762;-80
2023/04/20 03:34:09;;;;;;;13.10;8.53;;;7.30;99.90;;;5.58;92.54;100022.81;10387600;28;96600;-80
2023/04/20 03:39:12;;;;;;;33.93;20.67;;;7.20;99.90;;;5.55;92.36;100031.00;10411892;27;98735;-80
2023/04/20 03:44:15;;;;;;;29.57;18.83;;;7.20;99.90;;;5.54;92.71;100034.59;10395825;28;97115;-80
2023/04/20 03:49:26;;;;;;;33.47;22.13;;;7.10;99.90;;;5.54;92.91;100033.78;10362361;28;96625;-80
2023/04/20 03:54:30;;;;;;;27.65;19.00;;;7.20;99.90;;;5.53;92.99;100046.13;10377563;28;97109;-81
2023/04/20 03:59:33;;;;;;;21.40;13.33;;;7.10;99.90;;;5.53;92.94;100038.22;10410288;28;97875;-79
2023/04/20 04:04:36;;;;;;;17.73;12.43;;;7.10;99.90;;;5.53;92.77;100034.75;10395320;28;98273;-80
2023/04/20 04:09:39;;;;;;;15.83;10.03;;;7.10;99.90;;;5.59;93.20;100042.09;10374934;28;99239;-80
2023/04/20 04:14:42;;;;;;;16.57;9.90;;;7.20;99.90;;;5.66;93.40;100037.94;10371055;28;98816;-80
2023/04/20 04:19:45;;;;;;;31.83;15.87;;;7.30;99.90;;;5.76;93.63;100038.75;10377534;28;96834;-80
2023/04/20 04:24:48;;;;;;;27.40;15.83;;;7.30;99.90;;;5.87;93.54;100048.28;10373688;28;97332;-80
2023/04/20 04:29:51;;;;;;;28.80;13.40;;;7.40;99.90;;;5.99;93.80;100047.19;10378165;28;96384;-79
2023/04/20 04:34:54;;;;;;;22.67;9.33;;;7.50;99.90;;;6.10;94.04;100043.56;10375467;28;97991;-81
2023/04/20 04:39:57;;;;;;;21.00;10.97;;;7.60;99.90;;;6.24;94.32;100037.00;10364027;28;97571;-90
2023/04/20 04:45:03;;;;;;;15.97;9.03;;;7.80;99.90;;;6.41;94.56;100041.50;10376757;28;97106;-91
2023/04/20 04:50:08;;;;;;;15.63;9.27;;;7.90;99.90;;;6.60;94.64;100048.56;10376632;28;97577;-91
2023/04/20 04:55:11;;;;;;;10.30;6.80;;;8.00;99.90;;;6.81;94.67;100049.13;10382453;28;96549;-94
2023/04/20 05:00:17;;;;;;;14.27;6.67;;;8.20;99.90;;;6.95;94.32;100053.91;10401704;28;96712;-92
2023/04/20 05:05:21;;;;;;;6.97;5.20;;;8.40;99.90;;;7.17;94.35;100054.47;10403191;28;98396;-93
2023/04/20 05:10:24;;;;;;;7.60;5.47;;;8.60;99.90;;;7.31;93.51;100050.47;10401384;28;98584;-92
2023/04/20 05:15:27;;;;;;;8.73;4.93;;;8.70;99.90;;;7.42;92.79;100053.72;10381203;28;97069;-93
2023/04/20 05:20:30;;;;;;;9.97;4.67;;;8.80;99.90;;;7.58;92.47;100045.13;10400142;28;98120;-92
2023/04/20 05:25:33;;;;;;;11.43;5.90;;;8.90;99.90;;;7.77;92.25;100060.81;10380903;28;98097;-93
2023/04/20 05:30:36;;;;;;;7.37;4.77;;;9.00;99.90;;;8.02;92.07;100053.06;10399122;28;97483;-93
2023/04/20 05:35:39;;;;;;;8.20;4.37;;;9.30;99.90;;;8.25;91.40;100059.50;10383364;28;96646;-92
2023/04/20 05:40:43;;;;;;;6.20;4.00;;;9.50;99.90;;;8.49;90.56;100065.94;10401580;28;97955;-90
2023/04/20 05:45:47;;;;;;;6.27;4.30;;;9.80;99.90;;;8.68;89.50;100071.00;10401544;28;96536;-92
2023/04/20 05:50:50;;;;;;;5.20;4.20;;;10.00;99.90;;;8.88;88.81;100076.91;10395047;28;96500;-92
2023/04/20 05:55:54;;;;;;;7.77;5.47;;;10.20;99.90;;;9.09;88.06;100079.94;10369242;28;97258;-93
2023/04/20 06:00:57;;;;;;;12.43;6.17;;;10.40;99.90;;;9.33;87.52;100071.22;10383855;28;96592;-91
2023/04/20 06:06:00;;;;;;;13.93;7.00;;;10.60;99.90;;;9.54;85.93;100072.59;10378179;28;96522;-94
2023/04/20 06:11:03;;;;;;;11.47;7.27;;;10.90;99.90;;;9.84;85.33;100079.91;10371904;28;96743;-92
2023/04/20 06:16:08;;;;;;;11.37;6.57;;;11.10;99.90;;;10.03;84.01;100075.25;10368354;28;96816;-91
2023/04/20 06:21:11;;;;;;;17.77;7.47;;;11.40;99.90;;;10.21;83.41;100075.91;10401367;28;96617;-88
2023/04/20 06:26:15;;;;;;;12.80;6.93;;;11.50;99.90;;;10.42;82.33;100073.53;10400127;28;98824;-88
2023/04/20 06:31:19;;;;;;;12.90;6.20;;;11.80;99.90;;;10.69;81.12;100076.81;10377459;28;96595;-87
2023/04/20 06:36:22;;;;;;;11.83;5.10;;;12.00;99.90;;;10.96;79.61;100075.53;10401239;27;96773;-90
2023/04/20 06:41:26;;;;;;;6.87;5.10;;;12.30;99.90;;;11.24;77.39;100076.72;10396530;28;97392;-81
2023/04/20 06:46:29;;;;;;;8.67;5.50;;;12.50;99.90;;;11.57;75.23;100078.31;10392837;28;98094;-81
2023/04/20 06:51:33;;;;;;;7.47;5.13;;;12.80;99.90;;;11.82;72.41;100071.88;10377569;28;97100;-83
2023/04/20 06:56:36;;;;;;;7.37;4.37;;;13.10;99.90;;;12.08;71.40;100071.47;10394262;28;96649;-82
2023/04/20 07:01:39;;;;;;;8.50;5.40;;;13.40;99.90;;;12.26;70.40;100068.47;10402383;27;96796;-81
2023/04/20 07:06:42;;;;;;;6.97;5.37;;;13.50;99.90;;;12.48;69.60;100072.91;10386021;28;97535;-93
2023/04/20 07:11:45;;;;;;;10.40;4.87;;;13.80;99.90;;;12.77;68.79;100079.22;10381484;28;98648;-88
2023/04/20 07:16:52;;;;;;;7.13;5.40;;;14.00;99.90;;;13.04;66.67;100075.06;10396100;27;96532;-84
2023/04/20 07:21:55;;;;;;;7.77;5.70;;;14.30;99.90;;;13.41;64.29;100067.91;10395457;28;98777;-84
2023/04/20 07:26:58;;;;;;;6.63;4.80;;;14.60;99.40;;;13.78;60.35;100069.50;10397293;28;96510;-82
2023/04/20 07:32:01;;;;;;;7.22;4.57;;;15.00;97.60;;;14.58;60.65;100069.13;10392816;28;97503;-84
2023/04/20 07:37:04;;;;;;;7.10;4.82;;;15.40;97.20;;;15.46;52.89;100069.25;10397683;28;96722;-90
2023/04/20 07:42:07;;;;;;;7.88;4.18;;;15.80;93.80;;;15.52;55.30;100068.44;10378948;28;96576;-83
2023/04/20 07:47:11;;;;;;;5.63;4.00;;;16.00;93.70;;;15.71;53.85;100077.56;10369859;28;96572;-85
2023/04/20 07:52:14;;;;;;;6.35;3.95;;;16.30;92.00;;;16.45;51.49;100069.31;10396274;28;96522;-84
2023/04/20 07:57:20;;;;;;;5.82;3.92;;;16.60;90.40;;;16.25;49.61;100074.72;10376048;27;96477;-85
2023/04/20 08:02:23;;;;;;;5.55;3.75;;;16.70;86.30;;;15.91;50.02;100059.66;10379889;28;96679;-85
2023/04/20 08:07:27;;;;;;;5.72;4.15;;;16.70;84.40;;;15.75;49.08;100068.91;10395070;28;96595;-84
2023/04/20 08:12:30;;;;;;;6.25;4.68;;;16.80;81.90;;;15.61;49.16;100067.22;10392194;28;98369;-84
2023/04/20 08:17:33;;;;;;;7.57;3.88;;;16.90;80.00;;;15.60;50.32;100070.94;10393665;28;98159;-86
2023/04/20 08:22:38;;;;;;;5.22;3.97;;;16.80;80.30;;;15.55;50.42;100076.09;10393094;28;96631;-84
2023/04/20 08:27:41;;;;;;;5.20;4.00;;;16.90;79.20;;;15.78;49.89;100068.53;10380513;28;96630;-84
2023/04/20 08:32:44;;;;;;;5.38;3.80;;;17.10;79.30;;;15.89;48.93;100061.72;10383628;28;96623;-84
2023/04/20 08:37:48;;;;;;;5.13;3.80;;;17.30;78.30;;;16.03;49.81;100066.06;10402364;28;97646;-85
2023/04/20 08:42:51;;;;;;;5.05;3.47;;;17.40;77.80;;;16.35;49.24;100054.69;10398438;28;96495;-84
2023/04/20 08:47:57;;;;;;;6.18;3.92;;;17.80;76.70;;;16.83;47.31;100056.03;10386273;28;96536;-83
2023/04/20 08:53:02;;;;;;;6.47;3.42;;;18.20;75.80;;;17.22;44.55;100048.84;10401512;28;97515;-85
2023/04/20 08:58:05;;;;;;;3.60;2.78;;;18.60;72.00;;;17.86;44.93;100055.88;10384550;28;96805;-85
2023/04/20 09:03:08;;;;;;;4.55;3.10;;;19.10;72.70;;;18.75;42.45;100051.13;10383443;28;98503;-85
2023/04/20 09:08:11;;;;;;;4.07;2.70;;;19.80;69.40;;;19.74;41.10;100049.81;10399018;28;96749;-85
2023/04/20 09:13:22;;;;;;;3.25;2.58;;;20.50;66.70;;;20.42;38.64;100047.63;10397818;28;99102;-84
2023/04/20 09:18:25;;;;;;;5.72;2.90;;;20.80;64.70;;;20.59;36.76;100035.06;10418624;27;98192;-82
2023/04/20 09:23:28;;;;;;;4.15;2.50;;;20.90;61.60;;;20.58;36.80;100041.53;10417186;28;96650;-81
2023/04/20 09:28:38;;;;;;;3.38;2.70;;;20.90;60.70;;;20.42;37.23;100037.63;10398080;28;96600;-82
2023/04/20 09:33:41;;;;;;;3.42;2.60;;;21.00;60.40;;;20.70;36.79;100030.72;10383274;28;96661;-82
2023/04/20 09:38:44;;;;;;;5.32;2.40;;;21.10;60.00;;;20.37;35.40;100034.81;10388831;27;97299;-84
2023/04/20 09:43:47;;;;;;;3.28;2.42;;;21.10;57.50;;;20.56;34.96;100033.66;10400424;28;96621;-84
2023/04/20 09:48:50;;;;;;;6.35;2.50;;;21.10;57.50;;;20.81;34.67;100024.44;10397072;28;98121;-82
2023/04/20 09:53:59;;;;;;;4.22;2.47;;;21.70;57.00;;;21.60;35.52;100016.50;10418044;28;96467;-82
2023/04/20 09:59:03;;;;;;;3.80;2.35;;;22.40;57.40;;;21.86;33.98;100017.75;10399430;28;97488;-82
2023/04/20 10:04:09;;;;;;;3.67;2.20;;;22.60;55.10;;;22.03;33.91;100010.44;10417518;28;97656;-82
2023/04/20 10:09:24;;;;;;;5.05;2.47;;;22.60;54.30;;;21.75;32.60;99999.72;10383630;28;96612;-83
2023/04/20 10:14:27;;;;;;;3.10;2.35;;;22.60;53.50;;;21.19;34.25;99999.53;10398481;28;96602;-82
2023/04/20 10:19:42;;;;;;;4.75;3.05;;;22.20;53.60;;;20.49;35.55;99994.34;10417868;28;96551;-83
2023/04/20 10:24:45;;;;;;;3.58;2.58;;;22.10;53.60;;;19.99;36.68;99998.38;10399660;28;98049;-82
2023/04/20 10:29:48;;;;;;;3.45;2.53;;;21.70;54.00;;;19.95;37.50;99990.97;10373836;28;96818;-82
2023/04/20 10:35:07;;;;;;;3.88;2.70;;;21.50;55.00;;;20.00;36.92;99981.13;10397046;28;96515;-82
2023/04/20 10:40:11;;;;;;;3.72;2.58;;;21.50;54.50;;;20.59;37.96;99981.09;10398284;28;97734;-83
2023/04/20 10:45:15;;;;;;;7.07;2.72;;;21.80;55.80;;;20.36;35.93;99987.31;10397912;28;96770;-82
2023/04/20 10:50:18;;;;;;;5.53;3.00;;;21.80;53.90;;;20.16;36.72;99981.47;10396473;27;96549;-81
2023/04/20 10:55:24;;;;;;;3.78;2.53;;;21.60;54.60;;;20.26;37.68;99979.81;10414255;28;98383;-81
2023/04/20 11:00:29;;;;;;;3.53;2.60;;;21.70;54.70;;;20.37;36.94;99964.66;10417659;28;96511;-80
2023/04/20 11:05:32;;;;;;;3.35;2.60;;;22.00;53.90;;;20.23;35.50;99963.28;10417266;28;96806;-81
2023/04/20 11:10:41;;;;;;;3.97;2.47;;;22.00;52.30;;;20.72;36.18;99966.50;10381481;28;98032;-82
2023/04/20 11:15:44;;;;;;;3.65;2.30;;;22.20;53.00;;;21.10;34.12;99965.84;10392118;28;96710;-81
2023/04/20 11:20:52;;;;;;;5.38;2.65;;;22.60;51.90;;;21.07;33.59;99958.25;10373560;28;97236;-81
2023/04/20 11:25:56;;;;;;;3.17;2.33;;;22.60;51.10;;;21.17;34.96;99939.53;10373246;28;98117;-81
2023/04/20 11:30:59;;;;;;;3.67;2.35;;;22.70;51.60;;;21.04;33.35;99951.44;10356111;28;96627;-81
2023/04/20 11:36:03;;;;;;;4.18;2.50;;;22.70;50.50;;;21.54;34.22;99942.59;10380478;27;96605;-80
2023/04/20 11:41:06;;;;;;;3.00;2.17;;;23.10;51.20;;;21.69;32.53;99947.41;10399083;28;98444;-80
2023/04/20 11:46:19;;;;;;;4.07;2.10;;;23.60;49.80;;;21.81;32.79;99942.75;10414955;28;96685;-80
2023/04/20 11:51:22;;;;;;;4.00;2.17;;;23.50;49.30;;;22.53;30.66;99938.31;10398682;28;96490;-81
2023/04/20 11:56:25;;;;;;;3.00;2.33;;;24.20;49.50;;;23.30;30.27;99942.66;10403709;27;96647;-81
2023/04/20 12:01:28;;;;;;;3.03;2.05;;;25.10;48.30;;;23.76;30.08;99933.84;10394526;27;98770;-84
2023/04/20 12:06:32;;;;;;;2.28;1.63;;;25.40;47.80;;;24.48;30.16;99931.53;10376396;28;97403;-81
2023/04/20 12:11:35;;;;;;;2.35;2.00;;;26.00;48.80;;;24.15;26.32;99936.25;10393398;27;96698;-83
2023/04/20 12:16:38;;;;;;;2.88;1.80;;;26.40;43.70;;;23.34;26.87;99938.38;10399162;28;98287;-81
2023/04/20 12:21:41;;;;;;;3.50;2.30;;;25.60;42.90;;;22.66;27.85;99932.50;10396419;28;96507;-81
2023/04/20 12:26:44;;;;;;;3.05;2.20;;;24.80;43.60;;;21.88;29.26;99931.75;10395513;28;96699;-81
2023/04/20 12:31:47;;;;;;;2.70;1.80;;;24.00;44.40;;;21.15;31.44;99935.41;10370687;28;96526;-83
2023/04/20 12:36:50;;;;;;;3.72;2.13;;;23.00;45.60;;;20.63;31.85;99936.38;10388627;28;98342;-82
2023/04/20 12:41:54;;;;;;;3.10;2.20;;;22.40;46.40;;;20.14;33.22;99930.44;10412930;28;96542;-82
2023/04/20 12:46:57;;;;;;;2.83;1.90;;;21.80;47.50;;;19.87;32.81;99940.91;10396696;28;96450;-82
2023/04/20 12:52:00;;;;;;;3.03;2.05;;;21.50;47.90;;;19.77;33.03;99927.19;10377711;28;96479;-80
2023/04/20 12:57:03;;;;;;;3.08;1.65;;;21.40;48.10;;;20.54;32.08;99917.00;10394260;28;96539;-80
2023/04/20 13:02:06;;;;;;;3.00;1.77;;;22.20;48.50;;;21.36;28.74;99908.53;10354138;27;96512;-80
2023/04/20 13:07:10;;;;;;;1.90;1.67;;;23.50;45.60;;;21.95;28.85;99908.06;10375412;28;96698;-82
2023/04/20 13:12:13;;;;;;;3.42;1.83;;;24.40;44.00;;;22.50;27.63;99901.75;10377069;27;96598;-81
2023/04/20 13:17:17;;;;;;;4.07;1.73;;;25.20;42.70;;;22.98;28.82;99900.09;10401895;28;96616;-83
2023/04/20 13:22:20;;;;;;;3.03;1.80;;;25.90;43.10;;;23.40;28.52;99892.06;10396713;28;96973;-82
2023/04/20 13:27:24;;;;;;;3.38;1.73;;;26.30;42.70;;;23.03;28.39;99896.59;10385844;28;96513;-81
2023/04/20 13:32:27;;;;;;;2.80;1.60;;;25.60;42.10;;;22.57;28.61;99896.94;10400482;28;96585;-80
2023/04/20 13:37:32;;;;;;;3.17;1.58;;;24.80;42.80;;;21.92;29.33;99893.13;10416006;27;97736;-81
2023/04/20 13:42:35;;;;;;;2.45;1.58;;;23.90;43.70;;;22.68;29.26;99887.03;10391817;27;96892;-86
2023/04/20 13:47:39;;;;;;;1.98;1.65;;;24.70;44.00;;;23.70;28.02;99877.13;10380681;28;96639;-84
2023/04/20 13:52:42;;;;;;;3.05;1.90;;;26.00;43.40;;;24.37;26.26;99865.50;10381672;28;96797;-84
2023/04/20 13:57:46;;;;;;;2.47;1.30;;;27.00;42.10;;;24.62;27.62;99863.94;10382845;28;96693;-84
2023/04/20 14:02:48;;;;;;;1.77;1.40;;;27.30;41.60;;;25.01;26.11;99864.25;10385334;28;96897;-85
2023/04/20 14:07:52;;;;;;;1.77;1.50;;;27.90;40.80;;;25.82;25.20;99857.97;10406025;27;98416;-84
2023/04/20 14:12:55;;;;;;;1.75;1.48;;;28.60;40.90;;;25.94;23.78;99854.94;10398331;28;96854;-84
2023/04/20 14:17:59;;;;;;;2.47;1.50;;;29.00;39.60;;;26.02;23.93;99840.75;10400468;28;96751;-86
2023/04/20 14:23:02;;;;;;;3.63;1.70;;;29.00;39.30;;;26.00;24.82;99837.50;10398436;28;96584;-86
2023/04/20 14:28:05;;;;;;;2.85;1.60;;;28.90;39.20;;;26.30;23.08;99844.72;10382310;28;96535;-86
2023/04/20 14:33:08;;;;;;;2.72;1.40;;;29.20;39.10;;;26.35;24.62;99840.06;10397495;28;96706;-83
2023/04/20 14:38:11;;;;;;;2.90;1.65;;;29.20;39.30;;;26.35;23.76;99839.25;10414389;28;96578;-83
2023/04/20 14:43:14;;;;;;;2.17;1.40;;;29.20;39.00;;;26.51;22.17;99838.09;10395191;28;98648;-84
2023/04/20 14:48:18;;;;;;;1.60;1.30;;;29.40;38.20;;;25.97;23.89;99838.88;10374258;27;96667;-84
2023/04/20 14:53:21;;;;;;;3.05;1.25;;;29.00;37.90;;;25.63;22.62;99835.97;10399988;27;96643;-83
2023/04/20 14:58:24;;;;;;;2.75;1.65;;;28.70;37.40;;;24.64;24.50;99829.97;10384172;28;97410;-84
2023/04/20 15:03:27;;;;;;;1.92;1.15;;;27.90;37.60;;;24.79;25.51;99823.75;10384055;28;96522;-83
2023/04/20 15:08:31;;;;;;;3.40;1.38;;;27.50;38.60;;;25.00;23.37;99830.00;10393609;28;96982;-82
2023/04/20 15:13:34;;;;;;;2.72;1.58;;;27.70;38.20;;;24.90;24.07;99827.31;10343128;27;97463;-86
2023/04/20 15:18:37;;;;;;;1.65;1.38;;;27.60;38.20;;;24.82;24.96;99832.16;10387104;27;97779;-86
2023/04/20 15:23:39;;;;;;;2.63;1.42;;;27.60;38.70;;;24.90;24.25;99830.03;10388447;28;96718;-84
2023/04/20 15:28:43;;;;;;;2.15;1.45;;;27.60;38.50;;;24.57;25.04;99834.88;10395046;28;96458;-83
2023/04/20 15:33:47;;;;;;;2.20;1.50;;;27.20;38.70;;;24.68;25.15;99838.41;10361927;28;96970;-84
2023/04/20 15:38:52;;;;;;;2.38;1.30;;;26.90;39.00;;;24.32;25.26;99842.91;10339213;28;96630;-80
2023/04/20 15:43:57;;;;;;;2.22;1.35;;;26.20;39.40;;;23.90;25.69;99838.41;10330712;28;98708;-81
2023/04/20 15:49:01;;;;;;;2.38;1.27;;;25.60;39.60;;;23.22;26.52;99841.78;10365977;28;97647;-81
2023/04/20 15:54:04;;;;;;;3.85;1.83;;;25.10;40.20;;;22.81;27.37;99861.44;10370734;28;96684;-81
2023/04/20 15:59:07;;;;;;;2.97;1.85;;;24.80;40.80;;;21.56;32.06;99848.53;10372266;28;96778;-81
2023/04/20 16:04:10;;;;;;;4.85;2.80;;;23.90;43.90;;;20.74;33.03;99862.56;10359161;28;98363;-80
2023/04/20 16:09:14;;;;;;;4.75;3.17;;;22.90;45.20;;;20.00;35.58;99859.75;10351555;28;97479;-81
2023/04/20 16:14:17;;;;;;;9.02;4.85;;;22.00;47.10;;;19.19;37.74;99871.34;10371929;28;96466;-80
2023/04/20 16:19:20;;;;;;;6.70;3.38;;;21.10;49.50;;;18.68;39.52;99864.66;10345159;28;97247;-79
2023/04/20 16:24:24;;;;;;;5.25;3.13;;;20.50;51.10;;;18.45;41.18;99874.25;10365396;28;96508;-81
2023/04/20 16:29:27;;;;;;;5.20;2.38;;;20.10;52.40;;;18.14;42.34;99901.34;10355627;28;96657;-80
2023/04/20 16:34:30;;;;;;;3.08;2.22;;;19.80;54.10;;;17.60;44.27;99914.47;10384474;28;97634;-81
2023/04/20 16:39:34;;;;;;;3.83;2.25;;;19.30;56.30;;;17.05;46.11;99910.78;10395338;28;96575;-80
2023/04/20 16:44:37;;;;;;;6.32;2.20;;;18.70;57.80;;;16.60;47.23;99924.19;10414117;28;96433;-80
2023/04/20 16:49:43;;;;;;;3.22;1.80;;;18.30;59.20;;;16.30;48.21;99923.91;10391915;28;97655;-80
2023/04/20 16:54:47;;;;;;;4.05;1.70;;;17.90;60.20;;;16.12;48.93;99918.41;10412363;28;97396;-79
2023/04/20 16:59:49;;;;;;;7.38;2.30;;;17.60;60.70;;;16.03;49.02;99917.81;10430859;27;96522;-80
2023/04/20 17:04:52;;;;;;;11.40;5.60;;;17.40;61.20;;;15.91;50.76;99927.53;10394573;28;96811;-80
2023/04/20 17:09:56;;;;;;;5.95;3.30;;;17.30;62.30;;;15.52;54.87;99937.22;10399048;28;98365;-80
2023/04/20 17:14:59;;;;;;;10.02;6.15;;;17.00;66.30;;;15.07;54.45;99934.31;10415845;28;97982;-79
2023/04/20 17:20:05;;;;;;;6.13;2.50;;;16.60;66.80;;;14.81;56.36;99923.53;10396852;28;96661;-79
2023/04/20 17:25:09;;;;;;;2.33;1.40;;;16.20;67.70;;;14.59;55.83;99896.97;10409643;28;96514;-79
2023/04/20 17:30:12;;;;;;;8.13;5.63;;;16.00;67.70;;;14.62;56.46;99909.91;10384476;28;96525;-79
2023/04/20 17:35:16;;;;;;;10.38;8.20;;;15.90;68.10;;;14.69;55.08;99929.50;10382660;27;97152;-79
2023/04/20 17:40:19;;;;;;;8.75;5.38;;;16.00;67.80;;;14.78;58.45;99940.00;10416199;28;97431;-80
2023/04/20 17:45:22;;;;;;;4.85;2.45;;;16.10;69.60;;;14.79;56.97;99944.31;10400886;28;96621;-79
2023/04/20 17:50:25;;;;;;;5.00;2.55;;;16.10;68.80;;;14.82;57.66;99954.63;10384206;28;97629;-79
2023/04/20 17:55:29;;;;;;;5.28;2.90;;;16.10;69.10;;;14.84;58.08;99958.75;10360915;28;96651;-79
2023/04/20 18:00:32;;;;;;;5.13;3.37;;;16.10;69.20;;;14.80;58.93;99960.16;10397050;28;96878;-89
2023/04/20 18:05:35;;;;;;;7.80;5.28;;;16.10;69.60;;;14.79;59.69;99963.88;10379744;28;96653;-91
2023/04/20 18:10:39;;;;;;;6.60;4.20;;;16.10;70.40;;;14.74;58.51;99977.00;10396357;28;96965;-90
2023/04/20 18:15:42;;;;;;;9.48;6.13;;;16.10;70.20;;;14.71;59.24;99975.59;10399283;28;96676;-89
2023/04/20 18:20:46;;;;;;;7.68;5.32;;;16.10;71.10;;;14.68;60.11;99981.31;10382178;28;98274;-89
2023/04/20 18:25:49;;;;;;;19.13;8.65;;;16.00;71.40;;;14.61;60.69;99993.84;10399014;28;96758;-89
2023/04/20 18:30:55;;;;;;;16.02;7.30;;;16.00;72.10;;;14.52;61.16;100008.41;10395766;28;97184;-89
2023/04/20 18:36:00;;;;;;;6.72;4.05;;;15.90;72.80;;;14.41;60.82;100019.63;10380475;28;98466;-88
2023/04/20 18:41:03;;;;;;;6.97;3.83;;;15.80;73.10;;;14.34;61.54;100026.78;10376879;27;96592;-90
2023/04/20 18:46:07;;;;;;;4.18;2.55;;;15.70;73.50;;;14.24;61.79;100039.66;10398142;27;98579;-90
2023/04/20 18:51:10;;;;;;;4.97;3.10;;;15.60;73.90;;;14.18;62.29;100039.44;10381907;28;98009;-90
2023/04/20 18:56:13;;;;;;;7.10;2.80;;;15.60;74.40;;;14.10;62.08;100052.13;10380619;28;96745;-89
2023/04/20 19:01:17;;;;;;;4.73;2.90;;;15.50;74.60;;;14.04;62.96;100050.22;10397214;28;96597;-89
2023/04/20 19:06:22;;;;;;;7.30;3.97;;;15.40;75.30;;;13.91;63.72;100045.56;10392415;28;98369;-88
2023/04/20 19:11:27;;;;;;;7.33;3.80;;;15.30;76.10;;;13.85;64.23;100049.88;10376287;28;98490;-88
2023/04/20 19:16:32;;;;;;;7.13;3.65;;;15.20;76.70;;;13.79;63.87;100044.44;10372592;28;97987;-88
2023/04/20 19:21:35;;;;;;;5.35;3.47;;;15.10;76.80;;;13.71;64.46;100047.25;10396279;28;96705;-88
2023/04/20 19:26:38;;;;;;;7.00;3.33;;;15.00;77.40;;;13.61;64.93;100051.09;10356183;28;96900;-87
2023/04/20 19:31:41;;;;;;;7.00;2.83;;;14.90;77.80;;;13.51;65.34;100061.25;10382837;28;96659;-87
2023/04/20 19:36:44;;;;;;;4.80;2.80;;;14.80;78.20;;;13.40;65.11;100056.41;10393174;28;96668;-87
2023/04/20 19:41:47;;;;;;;9.37;5.50;;;14.70;78.30;;;13.33;65.20;100061.69;10395451;28;96519;-87
2023/04/20 19:46:50;;;;;;;9.33;6.27;;;14.70;78.70;;;13.18;65.03;100057.38;10394426;28;97267;-87
2023/04/20 19:51:53;;;;;;;9.37;5.87;;;14.60;78.70;;;13.13;65.19;100061.44;10416944;27;96493;-87
2023/04/20 19:56:56;;;;;;;10.47;6.47;;;14.50;79.00;;;13.05;65.32;100066.03;10381054;28;96626;-87
2023/04/20 20:01:59;;;;;;;10.60;5.80;;;14.50;79.20;;;12.94;65.14;100067.34;10375568;28;96593;-87
2023/04/20 20:07:03;;;;;;;9.33;5.27;;;14.30;79.50;;;12.82;65.57;100071.50;10382714;28;97132;-87
2023/04/20 20:12:09;;;;;;;7.37;4.33;;;14.20;79.80;;;12.71;66.26;100071.97;10383303;28;97534;-88
2023/04/20 20:17:12;;;;;;;4.40;3.63;;;14.10;80.50;;;12.58;66.69;100073.44;10404700;28;98728;-87
2023/04/20 20:22:18;;;;;;;5.20;3.20;;;14.00;81.00;;;12.46;66.76;100074.91;10398764;27;96879;-86
2023/04/20 20:27:21;;;;;;;4.60;2.30;;;13.80;81.50;;;12.37;66.75;100073.34;10404729;28;97504;-86
2023/04/20 20:32:24;;;;;;;5.47;2.80;;;13.80;81.70;;;12.26;67.04;100074.63;10374933;28;97641;-87
2023/04/20 20:37:33;;;;;;;4.77;2.57;;;13.60;82.10;;;12.16;67.41;100081.22;10393919;28;96508;-88
2023/04/20 20:42:38;;;;;;;5.90;2.93;;;13.50;82.40;;;12.04;67.64;100081.63;10375552;28;96571;-87
2023/04/20 20:47:43;;;;;;;5.00;2.50;;;13.50;82.90;;;11.94;67.78;100091.72;10390553;28;96754;-87
2023/04/20 20:52:47;;;;;;;4.47;2.20;;;13.30;83.40;;;11.84;67.66;100085.81;10390728;28;97263;-87
2023/04/20 20:57:51;;;;;;;5.73;3.67;;;13.30;83.70;;;11.71;69.30;100086.38;10408680;28;98235;-87